Flom, Minnesota
Current Conditions -  °F | °C
As of 12:15 AM on Wednesday 26 Nov 2014 (Local Time) from K3N8 Reporting Station
Overcast Overcast  
Wind Chill:   Ceiling: 900
Heat Index: 19°   Visibility: 7mi
Dew Point: 17°   Wind: 12mph
Humidity: 91%   Direction: 10°N
Pressure: 30.05"   Gusts: NA
Location:  47.17°N, 96.13°W
Report Text: K3N8 260615Z AUTO 01010KT 7SM BKN009 OVC018 M07/M08 A3005 RMK AO2 T10701083
Loading
Personal Weather Stations






























Interactive Weather Map New forecast layout! Learn more

10-Day Weather Forecast

Advertisements
Track Severe Weather on mobile